createdAt,value
2022-09-14T00:00:06.437Z,16.80
2022-09-14T00:01:25.398Z,16.80
2022-09-14T00:02:29.227Z,16.80
2022-09-14T00:03:31.235Z,16.80
2022-09-14T00:04:34.193Z,16.90
2022-09-14T00:05:36.481Z,16.90
2022-09-14T00:06:40.120Z,16.90
2022-09-14T00:07:42.057Z,16.90
2022-09-14T00:08:45.238Z,16.80
2022-09-14T00:09:48.977Z,16.90
2022-09-14T00:10:51.857Z,16.80
2022-09-14T00:11:53.805Z,16.80
2022-09-14T00:12:56.710Z,16.80
2022-09-14T00:14:00.339Z,16.90
2022-09-14T00:15:03.276Z,16.90
2022-09-14T00:16:07.035Z,16.90
2022-09-14T00:17:11.322Z,16.80
2022-09-14T00:18:13.233Z,16.90
2022-09-14T00:19:20.236Z,16.90
2022-09-14T00:20:22.191Z,16.90
2022-09-14T00:21:25.581Z,16.80
2022-09-14T00:22:27.497Z,16.80
2022-09-14T00:23:48.224Z,16.90
2022-09-14T00:24:50.466Z,16.90
2022-09-14T00:25:53.355Z,16.90
2022-09-14T00:26:56.229Z,16.90
2022-09-14T00:27:58.516Z,16.90
2022-09-14T00:29:04.394Z,17.00
2022-09-14T00:30:07.578Z,16.90
2022-09-14T00:31:11.509Z,16.90
2022-09-14T00:32:15.918Z,16.90
2022-09-14T00:33:18.101Z,16.90
2022-09-14T00:34:21.398Z,16.90
2022-09-14T00:35:23.466Z,16.90
2022-09-14T00:36:29.269Z,16.80
2022-09-14T00:37:31.192Z,16.80
2022-09-14T00:38:34.137Z,16.80
2022-09-14T00:39:36.815Z,16.80
2022-09-14T00:40:40.162Z,16.90
2022-09-14T00:41:44.577Z,16.80
2022-09-14T00:42:47.531Z,16.90
2022-09-14T00:43:54.901Z,16.90
2022-09-14T00:45:09.343Z,16.90
2022-09-14T00:46:11.265Z,16.90
2022-09-14T00:47:18.357Z,16.90
2022-09-14T00:48:22.549Z,16.90
2022-09-14T00:49:28.629Z,16.80
2022-09-14T00:50:31.457Z,16.90
2022-09-14T00:51:36.099Z,16.80
2022-09-14T00:52:42.291Z,16.90
2022-09-14T00:53:45.245Z,17.20
2022-09-14T00:54:49.727Z,16.80
2022-09-14T00:55:54.211Z,16.80
2022-09-14T00:56:59.355Z,16.80
2022-09-14T00:58:03.126Z,16.80
2022-09-14T00:59:09.825Z,16.90
2022-09-14T01:00:15.641Z,16.80
2022-09-14T01:01:17.748Z,16.80
2022-09-14T01:02:24.330Z,16.80
2022-09-14T01:03:26.303Z,16.80
2022-09-14T01:04:29.526Z,16.80
2022-09-14T01:05:44.416Z,16.80
2022-09-14T01:06:55.980Z,16.80
2022-09-14T01:08:21.633Z,16.80
2022-09-14T01:09:32.127Z,16.90
2022-09-14T01:10:45.706Z,16.90
2022-09-14T01:12:11.046Z,16.90
2022-09-14T01:13:23.973Z,16.80
2022-09-14T01:14:34.682Z,16.90
2022-09-14T01:15:47.569Z,16.90
2022-09-14T01:16:56.180Z,16.90
2022-09-14T01:18:08.268Z,16.90
2022-09-14T01:19:16.630Z,16.90
2022-09-14T01:20:26.918Z,16.90
2022-09-14T01:21:32.185Z,16.80
2022-09-14T01:22:37.930Z,16.80
2022-09-14T01:23:47.669Z,16.80
2022-09-14T01:24:56.587Z,16.80
2022-09-14T01:26:16.099Z,16.90
2022-09-14T01:27:29.908Z,16.90
2022-09-14T01:28:35.665Z,16.80
2022-09-14T01:29:42.592Z,16.80
2022-09-14T01:30:46.013Z,16.80
2022-09-14T01:31:54.693Z,16.90
2022-09-14T01:33:01.539Z,16.80
2022-09-14T01:34:13.059Z,16.80
2022-09-14T01:35:22.757Z,16.80
2022-09-14T01:36:28.771Z,16.80
2022-09-14T01:37:36.607Z,16.80
2022-09-14T01:38:43.390Z,16.80
2022-09-14T01:39:50.141Z,16.80
2022-09-14T01:40:53.567Z,16.80
2022-09-14T01:41:56.570Z,16.80
2022-09-14T01:43:06.380Z,16.80
2022-09-14T01:44:13.582Z,16.80
2022-09-14T01:45:20.013Z,16.80
2022-09-14T01:46:27.110Z,16.80
2022-09-14T01:47:35.886Z,16.80
2022-09-14T01:48:43.160Z,16.80
2022-09-14T01:49:52.414Z,16.80
2022-09-14T01:50:57.293Z,16.80
2022-09-14T01:52:06.240Z,16.80
2022-09-14T01:53:10.478Z,16.80
2022-09-14T01:54:18.137Z,16.80
2022-09-14T01:55:24.367Z,16.80
2022-09-14T01:56:32.797Z,16.80
2022-09-14T01:57:38.754Z,16.70
2022-09-14T01:58:46.956Z,16.70
2022-09-14T01:59:52.313Z,16.80
2022-09-14T02:00:57.134Z,16.80
2022-09-14T02:02:06.162Z,16.80
2022-09-14T02:03:14.418Z,16.70
2022-09-14T02:04:22.613Z,16.80
2022-09-14T02:05:31.307Z,16.80
2022-09-14T02:06:36.053Z,16.80
2022-09-14T02:07:39.451Z,16.80
2022-09-14T02:08:41.502Z,16.80
2022-09-14T02:09:44.751Z,16.80
2022-09-14T02:10:46.765Z,16.80
2022-09-14T02:11:49.930Z,16.80
2022-09-14T02:12:52.288Z,16.70
2022-09-14T02:13:57.242Z,16.70
2022-09-14T02:14:59.247Z,16.80
2022-09-14T02:16:02.549Z,16.80
2022-09-14T02:17:05.057Z,16.80
2022-09-14T02:18:07.990Z,16.70
2022-09-14T02:19:10.233Z,16.80
2022-09-14T02:20:17.290Z,16.80
2022-09-14T02:21:23.033Z,16.80
2022-09-14T02:22:27.789Z,16.80
2022-09-14T02:23:30.342Z,16.70
2022-09-14T02:24:33.517Z,16.80
2022-09-14T02:25:36.517Z,16.70
2022-09-14T02:26:41.273Z,16.70
2022-09-14T02:27:43.186Z,16.80
2022-09-14T02:28:47.005Z,16.80
2022-09-14T02:29:50.935Z,16.80
2022-09-14T02:31:04.380Z,16.80
2022-09-14T02:32:18.708Z,16.80
2022-09-14T02:33:29.902Z,16.80
2022-09-14T02:34:42.922Z,16.80
2022-09-14T02:35:50.942Z,16.70
2022-09-14T02:37:00.905Z,16.70
2022-09-14T02:38:09.594Z,16.80
2022-09-14T02:39:19.465Z,16.80
2022-09-14T02:40:29.607Z,16.80
2022-09-14T02:41:42.111Z,16.80
2022-09-14T02:42:54.814Z,16.70
2022-09-14T02:44:03.395Z,16.70
2022-09-14T02:45:21.505Z,16.80
2022-09-14T02:46:34.197Z,16.70
2022-09-14T02:47:45.794Z,16.80
2022-09-14T02:48:55.397Z,16.80
2022-09-14T02:50:07.922Z,16.80
2022-09-14T02:51:19.789Z,16.70
2022-09-14T02:52:28.664Z,16.80
2022-09-14T02:53:38.092Z,16.80
2022-09-14T02:54:46.439Z,16.80
2022-09-14T02:55:58.399Z,16.70
2022-09-14T02:57:01.022Z,16.70
2022-09-14T02:58:06.591Z,16.70
2022-09-14T02:59:08.558Z,16.70
2022-09-14T03:00:13.941Z,16.80
2022-09-14T03:01:18.626Z,16.80
2022-09-14T03:02:22.086Z,16.80
2022-09-14T03:03:24.069Z,16.80
2022-09-14T03:04:27.213Z,16.70
2022-09-14T03:05:29.362Z,16.70
2022-09-14T03:06:32.650Z,16.70
2022-09-14T03:07:34.571Z,16.80
2022-09-14T03:08:37.784Z,16.80
2022-09-14T03:09:40.045Z,16.70
2022-09-14T03:10:44.616Z,16.70
2022-09-14T03:11:46.576Z,16.80
2022-09-14T03:12:49.473Z,16.70
2022-09-14T03:13:52.385Z,16.70
2022-09-14T03:14:54.427Z,16.70
2022-09-14T03:15:58.733Z,16.70
2022-09-14T03:17:00.741Z,16.70
2022-09-14T03:18:03.728Z,16.70
2022-09-14T03:19:06.578Z,16.70
2022-09-14T03:20:11.397Z,16.70
2022-09-14T03:21:15.182Z,16.70
2022-09-14T03:22:18.102Z,16.70
2022-09-14T03:23:20.755Z,16.70
2022-09-14T03:24:23.746Z,16.70
2022-09-14T03:25:26.138Z,16.70
2022-09-14T03:26:30.011Z,16.70
2022-09-14T03:27:31.934Z,16.80
2022-09-14T03:28:34.850Z,16.70
2022-09-14T03:29:36.754Z,16.70
2022-09-14T03:30:39.792Z,16.70
2022-09-14T03:31:43.104Z,16.70
2022-09-14T03:32:46.606Z,16.80
2022-09-14T03:33:53.234Z,16.80
2022-09-14T03:34:57.399Z,16.70
2022-09-14T03:35:59.781Z,16.70
2022-09-14T03:37:02.714Z,16.70
2022-09-14T03:38:04.671Z,16.70
2022-09-14T03:39:07.623Z,16.80
2022-09-14T03:40:11.814Z,16.70
2022-09-14T03:41:15.388Z,16.70
2022-09-14T03:42:17.333Z,16.70
2022-09-14T03:43:20.776Z,16.70
2022-09-14T03:44:22.676Z,16.70
2022-09-14T03:45:25.624Z,16.70
2022-09-14T03:46:27.656Z,16.70
2022-09-14T03:47:31.929Z,16.70
2022-09-14T03:48:34.242Z,16.80
2022-09-14T03:49:37.149Z,16.80
2022-09-14T03:50:39.060Z,16.80
2022-09-14T03:51:41.977Z,16.80
2022-09-14T03:52:44.034Z,16.80
2022-09-14T03:53:47.668Z,16.80
2022-09-14T03:54:49.662Z,16.80
2022-09-14T03:55:52.571Z,16.80
2022-09-14T03:56:54.539Z,16.80
2022-09-14T03:57:58.764Z,16.80
2022-09-14T03:59:00.754Z,16.80
2022-09-14T04:00:05.635Z,16.80
2022-09-14T04:01:09.564Z,16.80
2022-09-14T04:02:12.600Z,16.70
2022-09-14T04:03:17.104Z,16.70
2022-09-14T04:04:19.109Z,16.80
2022-09-14T04:05:22.193Z,16.70
2022-09-14T04:06:24.173Z,16.70
2022-09-14T04:07:27.489Z,16.70
2022-09-14T04:08:29.385Z,16.70
2022-09-14T04:09:32.274Z,16.60
2022-09-14T04:10:34.237Z,16.70
2022-09-14T04:11:37.143Z,16.70
2022-09-14T04:12:39.694Z,16.60
2022-09-14T04:13:43.109Z,16.60
2022-09-14T04:14:45.022Z,16.60
2022-09-14T04:15:58.001Z,16.60
2022-09-14T04:17:00.096Z,16.60
2022-09-14T04:18:02.989Z,16.60
2022-09-14T04:19:06.705Z,16.60
2022-09-14T04:20:10.460Z,16.60
2022-09-14T04:21:15.228Z,16.60
2022-09-14T04:22:18.109Z,16.60
2022-09-14T04:23:20.001Z,16.60
2022-09-14T04:24:25.393Z,16.60
2022-09-14T04:25:31.282Z,16.70
2022-09-14T04:26:34.842Z,16.60
2022-09-14T04:27:36.881Z,16.60
2022-09-14T04:28:39.914Z,16.60
2022-09-14T04:29:41.868Z,16.60
2022-09-14T04:30:44.779Z,16.70
2022-09-14T04:31:46.763Z,16.70
2022-09-14T04:32:49.693Z,16.60
2022-09-14T04:33:53.165Z,16.60
2022-09-14T04:34:57.419Z,16.60
2022-09-14T04:36:01.728Z,16.60
2022-09-14T04:37:04.637Z,16.60
2022-09-14T04:38:06.541Z,16.60
2022-09-14T04:39:13.554Z,16.70
2022-09-14T04:40:15.671Z,16.60
2022-09-14T04:41:21.404Z,16.60
2022-09-14T04:42:24.407Z,16.60
2022-09-14T04:43:27.230Z,16.60
2022-09-14T04:44:30.217Z,16.60
2022-09-14T04:45:32.288Z,16.60
2022-09-14T04:46:36.238Z,16.60
2022-09-14T04:47:38.209Z,16.60
2022-09-14T04:48:41.281Z,16.60
2022-09-14T04:49:43.246Z,16.50
2022-09-14T04:50:47.534Z,16.60
2022-09-14T04:51:49.709Z,16.50
2022-09-14T04:52:52.622Z,16.50
2022-09-14T04:53:56.453Z,16.50
2022-09-14T04:54:59.409Z,16.50
2022-09-14T04:56:02.005Z,16.50
2022-09-14T04:57:05.047Z,16.40
2022-09-14T04:58:06.959Z,16.40
2022-09-14T04:59:10.442Z,16.50
2022-09-14T05:00:13.386Z,16.50
2022-09-14T05:01:18.212Z,16.50
2022-09-14T05:02:20.257Z,16.40
2022-09-14T05:03:23.595Z,16.40
2022-09-14T05:04:25.679Z,16.50
2022-09-14T05:05:28.568Z,16.40
2022-09-14T05:06:35.900Z,16.50
2022-09-14T05:07:38.804Z,16.50
2022-09-14T05:08:41.181Z,16.50
2022-09-14T05:09:44.356Z,16.50
2022-09-14T05:10:46.546Z,16.40
2022-09-14T05:11:51.769Z,16.50
2022-09-14T05:12:54.316Z,16.50
2022-09-14T05:13:57.994Z,16.50
2022-09-14T05:15:00.145Z,16.50
2022-09-14T05:16:07.455Z,16.50
2022-09-14T05:17:11.054Z,16.50
2022-09-14T05:18:12.978Z,16.50
2022-09-14T05:19:18.331Z,16.50
2022-09-14T05:20:20.301Z,16.60
2022-09-14T05:21:24.574Z,16.60
2022-09-14T05:22:27.837Z,16.60
2022-09-14T05:23:30.936Z,16.60
2022-09-14T05:24:33.875Z,16.60
2022-09-14T05:25:35.781Z,16.50
2022-09-14T05:26:38.927Z,16.50
2022-09-14T05:27:40.993Z,16.50
2022-09-14T05:28:43.962Z,16.50
2022-09-14T05:29:45.881Z,16.60
2022-09-14T05:30:48.827Z,16.50
2022-09-14T05:31:51.773Z,16.50
2022-09-14T05:32:57.517Z,16.50
2022-09-14T05:34:01.588Z,16.50
2022-09-14T05:35:03.683Z,16.50
2022-09-14T05:36:09.025Z,16.50
2022-09-14T05:37:12.740Z,16.40
2022-09-14T05:38:16.344Z,16.50
2022-09-14T05:39:23.147Z,16.40
2022-09-14T05:40:25.446Z,16.50
2022-09-14T05:41:28.400Z,16.50
2022-09-14T05:42:30.322Z,16.40
2022-09-14T05:43:33.600Z,16.30
2022-09-14T05:44:36.530Z,16.40
2022-09-14T05:45:38.435Z,16.40
2022-09-14T05:46:41.414Z,16.40
2022-09-14T05:47:43.403Z,16.40
2022-09-14T05:48:46.341Z,16.40
2022-09-14T05:49:49.235Z,16.40
2022-09-14T05:50:58.583Z,16.50
2022-09-14T05:52:01.571Z,16.40
2022-09-14T05:53:03.497Z,16.40
2022-09-14T05:54:11.541Z,16.40
2022-09-14T05:55:13.566Z,16.50
2022-09-14T05:56:17.454Z,16.50
2022-09-14T05:57:19.410Z,16.50
2022-09-14T05:58:22.304Z,16.50
2022-09-14T05:59:31.697Z,16.50
2022-09-14T06:00:33.644Z,16.50
2022-09-14T06:01:38.016Z,16.50
2022-09-14T06:02:48.162Z,16.50
2022-09-14T06:03:54.542Z,16.50
2022-09-14T06:04:59.198Z,16.50
2022-09-14T06:06:03.158Z,16.50
2022-09-14T06:07:18.408Z,16.50
2022-09-14T06:08:22.449Z,16.50
2022-09-14T06:09:29.970Z,16.50
2022-09-14T06:10:35.469Z,16.50
2022-09-14T06:11:37.440Z,16.50
2022-09-14T06:12:40.367Z,16.60
2022-09-14T06:13:43.278Z,16.60
2022-09-14T06:14:46.307Z,16.60
2022-09-14T06:15:48.237Z,16.60
2022-09-14T06:16:51.227Z,16.60
2022-09-14T06:17:53.228Z,16.60
2022-09-14T06:18:57.537Z,16.60
2022-09-14T06:20:04.165Z,16.60
2022-09-14T06:21:09.241Z,16.60
2022-09-14T06:22:12.177Z,16.70
2022-09-14T06:23:14.225Z,16.60
2022-09-14T06:24:17.141Z,16.70
2022-09-14T06:25:20.494Z,16.70
2022-09-14T06:26:23.523Z,16.70
2022-09-14T06:27:25.459Z,16.60
2022-09-14T06:28:29.216Z,16.60
2022-09-14T06:29:32.161Z,16.50
2022-09-14T06:30:37.294Z,16.60
2022-09-14T06:31:40.389Z,16.60
2022-09-14T06:32:42.459Z,16.60
2022-09-14T06:33:46.064Z,16.60
2022-09-14T06:34:48.004Z,16.70
2022-09-14T06:36:01.679Z,16.60
2022-09-14T06:37:03.617Z,16.70
2022-09-14T06:38:06.566Z,16.70
2022-09-14T06:39:10.109Z,16.70
2022-09-14T06:40:12.112Z,16.80
2022-09-14T06:41:19.029Z,16.70
2022-09-14T06:42:21.962Z,16.70
2022-09-14T06:43:24.375Z,16.70
2022-09-14T06:44:27.321Z,16.70
2022-09-14T06:45:29.850Z,16.80
2022-09-14T06:46:35.089Z,16.70
2022-09-14T06:47:37.998Z,16.70
2022-09-14T06:48:42.854Z,16.70
2022-09-14T06:49:45.937Z,16.80
2022-09-14T06:50:47.821Z,16.70
2022-09-14T06:51:51.433Z,16.70
2022-09-14T06:52:53.372Z,16.70
2022-09-14T06:54:00.056Z,16.70
2022-09-14T06:55:02.198Z,16.70
2022-09-14T06:56:05.193Z,16.80
2022-09-14T06:57:09.456Z,16.70
2022-09-14T06:58:11.940Z,16.70
2022-09-14T06:59:17.658Z,16.70
2022-09-14T07:00:19.713Z,16.70
2022-09-14T07:01:22.956Z,16.70
2022-09-14T07:02:25.862Z,16.70
2022-09-14T07:03:27.814Z,16.70
2022-09-14T07:04:31.069Z,16.70
2022-09-14T07:05:33.490Z,16.70
2022-09-14T07:06:42.103Z,16.70
2022-09-14T07:07:45.114Z,16.70
2022-09-14T07:08:47.619Z,16.70
2022-09-14T07:09:50.519Z,16.70
2022-09-14T07:10:56.790Z,16.70
2022-09-14T07:11:59.691Z,16.70
2022-09-14T07:13:03.013Z,16.80
2022-09-14T07:14:06.813Z,16.70
2022-09-14T07:15:09.621Z,16.80
2022-09-14T07:16:12.741Z,16.70
2022-09-14T07:17:16.692Z,16.70
2022-09-14T07:18:18.685Z,16.70
2022-09-14T07:19:21.805Z,16.70
2022-09-14T07:20:23.705Z,16.70
2022-09-14T07:21:27.622Z,16.70
2022-09-14T07:22:33.734Z,16.70
2022-09-14T07:23:38.175Z,16.70
2022-09-14T07:24:41.717Z,16.70
2022-09-14T07:25:43.684Z,16.80
2022-09-14T07:26:46.592Z,16.80
2022-09-14T07:27:48.517Z,16.80
2022-09-14T07:28:57.387Z,16.90
2022-09-14T07:30:00.272Z,16.80
2022-09-14T07:31:03.669Z,16.90
2022-09-14T07:32:06.808Z,16.90
2022-09-14T07:33:08.722Z,16.90
2022-09-14T07:34:12.606Z,16.90
2022-09-14T07:35:15.638Z,17.00
2022-09-14T07:36:17.730Z,17.00
2022-09-14T07:37:20.705Z,17.00
2022-09-14T07:38:35.794Z,17.00
2022-09-14T07:39:46.504Z,17.00
2022-09-14T07:40:48.442Z,17.00
2022-09-14T07:41:51.385Z,17.00
2022-09-14T07:42:57.407Z,17.00
2022-09-14T07:44:03.494Z,17.00
2022-09-14T07:45:07.514Z,17.00
2022-09-14T07:46:09.733Z,17.00
2022-09-14T07:47:12.745Z,17.00
2022-09-14T07:48:15.706Z,17.00
2022-09-14T07:49:19.260Z,17.00
2022-09-14T07:50:21.705Z,17.00
2022-09-14T07:51:25.586Z,17.00
2022-09-14T07:52:28.491Z,17.00
2022-09-14T07:53:30.993Z,17.00
2022-09-14T07:54:35.548Z,17.00
2022-09-14T07:55:39.047Z,17.00
2022-09-14T07:56:43.374Z,17.00
2022-09-14T07:57:56.059Z,16.90
2022-09-14T07:59:17.602Z,16.90
2022-09-14T08:00:24.128Z,16.90
2022-09-14T08:01:29.892Z,16.90
2022-09-14T08:02:32.729Z,16.90
2022-09-14T08:03:36.840Z,16.90
2022-09-14T08:04:39.319Z,17.00
2022-09-14T08:05:42.368Z,17.00
2022-09-14T08:06:45.294Z,17.00
2022-09-14T08:07:47.240Z,17.00
2022-09-14T08:08:52.279Z,17.00
2022-09-14T08:09:55.173Z,17.00
2022-09-14T08:11:04.396Z,17.00
2022-09-14T08:12:07.489Z,17.00
2022-09-14T08:13:09.400Z,17.00
2022-09-14T08:14:15.089Z,17.00
2022-09-14T08:15:18.107Z,17.00
2022-09-14T08:16:20.993Z,17.00
2022-09-14T08:17:24.072Z,17.00
2022-09-14T08:18:25.988Z,17.00
2022-09-14T08:19:28.962Z,17.00
2022-09-14T08:20:30.886Z,17.00
2022-09-14T08:21:35.597Z,17.00
2022-09-14T08:22:40.874Z,17.00
2022-09-14T08:23:44.645Z,17.00
2022-09-14T08:24:47.569Z,17.00
2022-09-14T08:25:49.949Z,17.10
2022-09-14T08:26:53.900Z,17.10
2022-09-14T08:27:55.812Z,17.00
2022-09-14T08:28:59.731Z,17.10
2022-09-14T08:30:04.601Z,17.10
2022-09-14T08:31:08.834Z,17.10
2022-09-14T08:32:13.723Z,17.10
2022-09-14T08:33:15.649Z,17.10
2022-09-14T08:34:19.548Z,17.10
2022-09-14T08:35:35.509Z,17.10
2022-09-14T08:36:45.616Z,17.10
2022-09-14T08:37:47.589Z,17.10
2022-09-14T08:38:51.197Z,17.10
2022-09-14T08:39:54.197Z,17.10
2022-09-14T08:40:56.929Z,17.10
2022-09-14T08:42:01.869Z,17.10
2022-09-14T08:43:04.613Z,17.20
2022-09-14T08:44:16.242Z,17.20
2022-09-14T08:45:19.673Z,17.20
2022-09-14T08:46:30.507Z,17.20
2022-09-14T08:47:36.789Z,17.20
2022-09-14T08:48:44.685Z,17.30
2022-09-14T08:49:52.166Z,17.20
2022-09-14T08:50:54.097Z,17.30
2022-09-14T08:51:57.613Z,17.30
2022-09-14T08:53:01.189Z,17.30
2022-09-14T08:54:03.399Z,17.40
2022-09-14T08:55:20.148Z,17.40
2022-09-14T08:56:25.514Z,17.40
2022-09-14T08:57:34.770Z,17.40
2022-09-14T08:58:52.103Z,17.40
2022-09-14T09:00:06.477Z,17.40
2022-09-14T09:01:20.874Z,17.50
2022-09-14T09:02:49.793Z,17.50
2022-09-14T09:04:11.995Z,17.50
2022-09-14T09:05:27.882Z,17.50
2022-09-14T09:06:38.861Z,17.60
2022-09-14T09:07:57.293Z,17.50
2022-09-14T09:09:07.531Z,17.60
2022-09-14T09:10:12.522Z,17.60
2022-09-14T09:11:19.785Z,17.50
2022-09-14T09:12:25.337Z,17.50
2022-09-14T09:13:31.837Z,17.60
2022-09-14T09:14:36.954Z,17.60
2022-09-14T09:15:45.543Z,17.60
2022-09-14T09:16:51.396Z,17.60
2022-09-14T09:17:59.022Z,17.60
2022-09-14T09:19:05.761Z,17.60
2022-09-14T09:20:14.222Z,17.70
2022-09-14T09:21:18.921Z,17.70
2022-09-14T09:22:24.026Z,17.70
2022-09-14T09:23:30.836Z,17.80
2022-09-14T09:24:37.222Z,17.70
2022-09-14T09:25:52.318Z,17.80
2022-09-14T09:26:55.270Z,17.80
2022-09-14T09:28:02.493Z,17.80
2022-09-14T09:29:07.154Z,17.80
2022-09-14T09:30:14.105Z,17.80
2022-09-14T09:31:19.942Z,17.90
2022-09-14T09:32:24.849Z,17.90
2022-09-14T09:33:28.939Z,17.90
2022-09-14T09:34:34.068Z,17.80
2022-09-14T09:35:36.957Z,17.80
2022-09-14T09:36:41.845Z,17.80
2022-09-14T09:37:44.789Z,17.90
2022-09-14T09:38:46.724Z,17.80
2022-09-14T09:39:50.097Z,17.90
2022-09-14T09:40:57.590Z,17.90
2022-09-14T09:42:02.092Z,17.80
2022-09-14T09:43:10.307Z,17.90
2022-09-14T09:44:12.576Z,17.90
2022-09-14T09:45:15.648Z,17.90
2022-09-14T09:46:18.090Z,17.80
2022-09-14T09:47:29.285Z,17.90
2022-09-14T09:48:40.035Z,17.90
2022-09-14T09:49:42.524Z,17.90
2022-09-14T09:50:50.788Z,18.00
2022-09-14T09:51:54.529Z,18.00
2022-09-14T09:53:02.140Z,18.00
2022-09-14T09:54:20.133Z,18.00
2022-09-14T09:55:36.701Z,18.00
2022-09-14T09:56:51.830Z,18.10
2022-09-14T09:57:55.660Z,18.10
2022-09-14T09:58:57.898Z,18.00
2022-09-14T10:00:12.772Z,18.00
2022-09-14T10:01:21.939Z,18.00
2022-09-14T10:02:28.680Z,18.10
2022-09-14T10:03:35.009Z,18.00
2022-09-14T10:04:37.953Z,18.00
2022-09-14T10:05:39.913Z,18.10
2022-09-14T10:06:44.082Z,18.00
2022-09-14T10:07:54.566Z,18.00
2022-09-14T10:08:58.910Z,18.00
2022-09-14T10:10:04.300Z,18.00
2022-09-14T10:11:06.388Z,18.00
2022-09-14T10:12:16.899Z,18.00
2022-09-14T10:13:25.385Z,18.00
2022-09-14T10:14:32.015Z,17.90
2022-09-14T10:15:36.594Z,17.90
2022-09-14T10:16:42.024Z,17.90
2022-09-14T10:18:01.340Z,17.90
2022-09-14T10:19:04.479Z,17.90
2022-09-14T10:20:07.290Z,17.90
2022-09-14T10:21:10.681Z,17.90
2022-09-14T10:22:27.165Z,17.90
2022-09-14T10:23:33.319Z,17.90
2022-09-14T10:24:38.590Z,17.90
2022-09-14T10:25:41.586Z,17.90
2022-09-14T10:26:44.783Z,17.90
2022-09-14T10:27:48.558Z,17.90
2022-09-14T10:28:52.682Z,18.00
2022-09-14T10:29:57.573Z,18.00
2022-09-14T10:31:03.768Z,18.00
2022-09-14T10:32:18.155Z,18.10
2022-09-14T10:33:22.836Z,18.00
2022-09-14T10:34:24.815Z,18.00
2022-09-14T10:35:36.505Z,18.10
2022-09-14T10:36:44.390Z,18.10
2022-09-14T10:38:09.335Z,18.10
2022-09-14T10:39:24.116Z,18.10
2022-09-14T10:40:36.859Z,18.10
2022-09-14T10:41:45.814Z,18.10
2022-09-14T10:43:04.053Z,18.00
2022-09-14T10:44:34.331Z,18.00
2022-09-14T10:45:40.989Z,18.00
2022-09-14T10:46:54.262Z,18.10
2022-09-14T10:48:24.035Z,18.10
2022-09-14T10:49:37.921Z,18.10
2022-09-14T10:50:54.850Z,18.10
2022-09-14T10:52:05.914Z,18.20
2022-09-14T10:53:19.875Z,18.10
2022-09-14T10:54:39.657Z,18.10
2022-09-14T10:55:47.358Z,18.20
2022-09-14T10:57:05.730Z,18.20
2022-09-14T10:58:34.141Z,18.20
2022-09-14T10:59:46.035Z,18.20
2022-09-14T11:00:57.300Z,18.30
2022-09-14T11:02:31.259Z,18.40
2022-09-14T11:03:49.075Z,18.30
2022-09-14T11:05:09.648Z,18.30
2022-09-14T11:06:33.200Z,18.30
2022-09-14T11:07:42.853Z,18.30
2022-09-14T11:08:50.876Z,18.30
2022-09-14T11:10:03.372Z,18.40
2022-09-14T11:11:26.573Z,18.40
2022-09-14T11:12:37.637Z,18.40
2022-09-14T11:14:02.282Z,18.40
2022-09-14T11:15:11.770Z,18.30
2022-09-14T11:16:28.254Z,18.40
2022-09-14T11:17:54.773Z,18.50
2022-09-14T11:19:06.697Z,18.50
2022-09-14T11:20:22.002Z,18.50
2022-09-14T11:21:35.089Z,18.50
2022-09-14T11:22:47.344Z,18.50
2022-09-14T11:23:54.910Z,18.50
2022-09-14T11:25:01.873Z,18.70
2022-09-14T11:26:09.156Z,18.70
2022-09-14T11:27:20.061Z,18.70
2022-09-14T11:28:26.605Z,18.90
2022-09-14T11:29:33.530Z,18.90
2022-09-14T11:30:40.890Z,18.90
2022-09-14T11:32:16.842Z,18.80
2022-09-14T11:33:22.279Z,18.70
2022-09-14T11:34:29.975Z,18.70
2022-09-14T11:35:39.166Z,18.70
2022-09-14T11:36:46.516Z,18.70
2022-09-14T11:37:53.784Z,18.70
2022-09-14T11:39:06.838Z,18.60
2022-09-14T11:40:20.936Z,18.70
2022-09-14T11:41:28.962Z,18.70
2022-09-14T11:42:36.669Z,18.60
2022-09-14T11:43:48.195Z,18.50
2022-09-14T11:44:56.552Z,18.50
2022-09-14T11:46:06.456Z,18.60
2022-09-14T11:47:14.579Z,18.60
2022-09-14T11:48:42.349Z,18.60
2022-09-14T11:49:55.248Z,18.70
2022-09-14T11:51:05.790Z,18.70
2022-09-14T11:52:14.377Z,18.70
2022-09-14T11:53:16.929Z,18.70
2022-09-14T11:54:21.765Z,18.70
2022-09-14T11:55:23.774Z,18.70
2022-09-14T11:56:29.012Z,18.70
2022-09-14T11:57:32.809Z,18.70
2022-09-14T11:58:36.193Z,18.70
2022-09-14T11:59:50.371Z,18.70
2022-09-14T12:01:22.044Z,18.70
2022-09-14T12:02:59.442Z,18.70
2022-09-14T12:04:20.060Z,18.80
2022-09-14T12:05:28.849Z,19.00
2022-09-14T12:07:02.976Z,19.00
2022-09-14T12:08:24.296Z,19.00
2022-09-14T12:09:44.884Z,18.90
2022-09-14T12:11:00.796Z,18.80
2022-09-14T12:12:07.229Z,18.90
2022-09-14T12:13:20.539Z,18.80
2022-09-14T12:14:40.473Z,18.90
2022-09-14T12:15:45.015Z,18.80
2022-09-14T12:17:35.651Z,18.80
2022-09-14T12:18:39.285Z,20.10
2022-09-14T12:19:41.857Z,18.70
2022-09-14T12:20:48.291Z,18.70
2022-09-14T12:21:50.450Z,18.70
2022-09-14T12:23:06.638Z,18.70
2022-09-14T12:24:16.349Z,18.70
2022-09-14T12:25:20.714Z,18.60
2022-09-14T12:26:33.726Z,18.60
2022-09-14T12:27:37.792Z,18.60
2022-09-14T12:28:47.961Z,18.70
2022-09-14T12:29:50.936Z,18.60
2022-09-14T12:31:12.878Z,18.60
2022-09-14T12:32:41.048Z,18.50
2022-09-14T12:34:20.262Z,18.50
2022-09-14T12:35:47.141Z,18.50
2022-09-14T12:37:31.341Z,18.50
2022-09-14T12:38:43.865Z,18.50
2022-09-14T12:40:16.500Z,18.50
2022-09-14T12:42:13.240Z,18.50
2022-09-14T12:43:53.701Z,18.50
2022-09-14T12:44:55.748Z,18.50
2022-09-14T12:46:02.897Z,18.50
2022-09-14T12:47:39.654Z,18.50
2022-09-14T12:48:59.733Z,18.60
2022-09-14T12:50:09.679Z,18.60
2022-09-14T12:51:15.541Z,18.60
2022-09-14T12:52:31.282Z,18.60
2022-09-14T12:53:36.090Z,18.60
2022-09-14T12:54:56.665Z,18.60
2022-09-14T12:56:05.053Z,18.50
2022-09-14T12:57:22.436Z,18.50
2022-09-14T12:58:46.913Z,18.60
2022-09-14T13:00:04.645Z,18.50
2022-09-14T13:01:21.362Z,18.50
2022-09-14T13:03:05.462Z,18.50
2022-09-14T13:04:15.418Z,18.70
2022-09-14T13:05:20.771Z,18.70
2022-09-14T13:06:25.669Z,18.70
2022-09-14T13:07:32.006Z,18.60
2022-09-14T13:08:35.618Z,18.60
2022-09-14T13:09:37.694Z,18.60
2022-09-14T13:10:47.457Z,18.50
2022-09-14T13:11:54.381Z,18.50
2022-09-14T13:12:57.637Z,18.50
2022-09-14T13:14:01.437Z,18.50
2022-09-14T13:15:07.303Z,18.60
2022-09-14T13:16:17.402Z,18.50
2022-09-14T13:17:19.855Z,18.60
2022-09-14T13:18:30.415Z,18.50
2022-09-14T13:19:34.670Z,18.50
2022-09-14T13:20:36.637Z,18.50
2022-09-14T13:21:48.125Z,18.50
2022-09-14T13:22:50.221Z,18.50
2022-09-14T13:23:53.128Z,18.50
2022-09-14T13:24:56.296Z,18.50
2022-09-14T13:26:01.255Z,18.50
2022-09-14T13:27:04.556Z,18.50
2022-09-14T13:28:14.709Z,18.50
2022-09-14T13:29:16.625Z,18.50
2022-09-14T13:30:22.588Z,18.40
2022-09-14T13:31:31.871Z,18.40
2022-09-14T13:32:36.746Z,18.40
2022-09-14T13:33:39.693Z,18.40
2022-09-14T13:34:41.649Z,18.40
2022-09-14T13:35:48.587Z,18.40
2022-09-14T13:36:52.019Z,18.40
2022-09-14T13:37:54.165Z,18.40
2022-09-14T13:39:01.587Z,18.40
2022-09-14T13:40:04.292Z,18.40
2022-09-14T13:41:12.435Z,18.50
2022-09-14T13:42:15.293Z,18.50
2022-09-14T13:43:18.838Z,18.50
2022-09-14T13:44:24.851Z,18.40
2022-09-14T13:45:28.044Z,18.40
2022-09-14T13:46:30.103Z,18.50
2022-09-14T13:47:33.166Z,18.50
2022-09-14T13:48:37.353Z,18.50
2022-09-14T13:49:42.017Z,18.50
2022-09-14T13:50:47.384Z,18.50
2022-09-14T13:51:50.301Z,18.50
2022-09-14T13:53:03.065Z,18.60
2022-09-14T13:54:20.533Z,18.50
2022-09-14T13:55:26.324Z,18.50
2022-09-14T13:56:33.596Z,18.50
2022-09-14T13:57:35.532Z,16.30
2022-09-14T13:58:38.496Z,18.50
2022-09-14T14:00:06.879Z,18.50
2022-09-14T14:01:10.434Z,18.50
2022-09-14T14:02:14.032Z,18.50
2022-09-14T14:03:27.475Z,18.50
2022-09-14T14:04:36.784Z,18.50
2022-09-14T14:05:43.598Z,18.50
2022-09-14T14:06:46.610Z,18.50
2022-09-14T14:07:49.852Z,18.50
2022-09-14T14:09:01.342Z,18.50
2022-09-14T14:10:04.725Z,18.50
2022-09-14T14:11:08.349Z,18.50
2022-09-14T14:12:21.906Z,18.50
2022-09-14T14:13:28.508Z,18.50
2022-09-14T14:14:31.769Z,18.50
2022-09-14T14:15:38.354Z,18.50
2022-09-14T14:17:00.646Z,18.50
2022-09-14T14:18:47.371Z,18.50
2022-09-14T14:19:50.265Z,18.50
2022-09-14T14:20:53.796Z,18.50